Flight Track Log - Related Links

Times and Time Zones

All times are in EDT time to prevent confusion due to time zone crossing. See the LXJ342 flight status page for this flight to view local times or setup timezone preferences in your user account.

Time Position Orientation Groundspeed Altitude Reporting Facility
EDT Latitude Longitude Course Direction KTS MPH feet Rate Location/Type
Thu 11:42:13 AM 39.4333 -119.7667 131° Southeast 218 251 8,100  Level Northern Cal TRACON
Thu 11:43:33 AM 39.3706 -119.7161 148° Southeast 253 291 11,900 2,493 Climbing Oakland Center
Thu 11:44:35 AM 39.3192 -119.6317 128° Southeast 293 337 14,000 2,000 Climbing Oakland Center
Thu 11:45:36 AM 39.2578 -119.5372 130° Southeast 336 387 16,000 2,000 Climbing Oakland Center
Thu 11:46:38 AM 39.1683 -119.4267 136° Southeast 368 423 18,100 2,000 Climbing Oakland Center
Thu 11:47:00 AM 39.1327 -119.1657 131° Southeast  Level FlightAware Approximate
Thu 11:47:39 AM 39.0878 -119.3322 138° Southeast 388 447 20,100  Level Oakland Center
Thu 11:48:41 AM 39.0067 -119.2364 137° Southeast 396 456 22,100 1,854 Climbing Oakland Center
Thu 11:49:42 AM 38.9250 -119.1406 138° Southeast 399 459 23,900 1,623 Climbing Oakland Center
Thu 11:50:43 AM 38.8406 -119.0419 138° Southeast 409 471 25,400 1,463 Climbing Oakland Center
Thu 11:51:45 AM 38.7539 -118.9403 138° Southeast 423 487 26,900 1,463 Climbing Oakland Center
Thu 11:52:46 AM 38.6658 -118.8375 138° Southeast 430 495 28,400 1,463 Climbing Oakland Center
Thu 11:53:48 AM 38.5589 -118.7144 138° Southeast 431 496 29,900 1,171 Climbing Oakland Center
Thu 11:54:49 AM 38.4681 -118.6097 138° Southeast 439 505 30,800 927 Climbing Oakland Center
Thu 11:55:51 AM 38.3747 -118.5033 138° Southeast 447 514 31,800 976 Climbing Oakland Center
Thu 11:56:52 AM 38.2822 -118.3967 138° Southeast 449 517 32,800 585 Climbing Oakland Center
Thu 11:57:54 AM 38.1892 -118.2911 138° Southeast 449 517 33,000 98 Climbing Oakland Center
Thu 11:58:55 AM 38.0808 -118.1669 138° Southeast 467 537 33,000  Level Oakland Center
Thu 11:59:57 AM 37.9853 -118.0575 138° Southeast 465 535 33,000  Level Oakland Center
Thu 12:00:58 PM 37.8897 -117.9503 138° Southeast 463 533 33,000  Level Oakland Center
Thu 12:02:00 PM 37.7936 -117.8428 139° Southeast 462 532 33,000  Level Oakland Center
Thu 12:03:01 PM 37.6992 -117.7375 139° Southeast 458 527 33,000  Level Oakland Center
Thu 12:04:03 PM 37.6050 -117.6328 139° Southeast 454 522 33,000  Level Oakland Center
Thu 12:05:04 PM 37.5119 -117.5269 138° Southeast 453 521 33,000  Level Oakland Center
Thu 12:06:05 PM 37.3975 -117.4011 139° Southeast 456 525 33,000  Level Oakland Center
Thu 12:07:07 PM 37.3033 -117.2983 139° Southeast 453 521 33,000  Level Oakland Center
Thu 12:08:08 PM 37.2092 -117.1933 138° Southeast 456 525 33,000  Level Oakland Center
Thu 12:09:10 PM 37.1133 -117.0881 139° Southeast 456 525 33,000  Level Oakland Center
Thu 12:10:11 PM 37.0206 -116.9867 139° Southeast 448 516 33,000  Level Oakland Center
Thu 12:11:13 PM 36.9253 -116.8822 139° Southeast 451 519 33,000  Level Oakland Center
Thu 12:12:14 PM 36.8303 -116.7797 139° Southeast 452 520 33,000 -634 Level Oakland Center
Thu 12:13:16 PM 36.7422 -116.6706 135° Southeast 451 519 31,700 -2,049 Descending Oakland Center
Thu 12:14:17 PM 36.6414 -116.5281 131° Southeast 451 519 28,800 -2,607 Descending Oakland Center
Thu 12:15:18 PM 36.5583 -116.4111 131° Southeast 451 519 26,400 -2,292 Descending Oakland Center
Thu 12:16:41 PM 36.4589 -116.2589 129° Southeast 446 513 23,300 -2,359 Descending Los Angeles Center
Thu 12:17:43 PM 36.3681 -116.1317 132° Southeast 424 488 20,700 -2,274 Descending Los Angeles Center
Thu 12:18:45 PM 36.2939 -116.0272 131° Southeast 406 467 18,600 -2,032 Descending Los Angeles Center
Thu 12:19:47 PM 36.2183 -115.9231 132° Southeast 379 436 16,500 -1,597 Descending Los Angeles Center
Thu 12:20:49 PM 36.1775 -115.8258 117° Southeast 319 367 15,300 -1,065 Descending Los Angeles Center
Thu 12:21:51 PM 36.1425 -115.7175 112° Southeast 317 365 14,300 -968 Descending Los Angeles Center
Thu 12:22:53 PM 36.1094 -115.6178 112° Southeast 315 362 13,300 -864 Descending Los Angeles Center
Thu 12:23:56 PM 36.0800 -115.5267 112° Southeast 313 360 12,500 -912 Descending Los Angeles Center
Thu 12:24:58 PM 36.0433 -115.4131 112° Southeast 303 349 11,400 -968 Descending Los Angeles Center
Thu 12:26:00 PM 36.0261 -115.3228 103° East 284 327 10,500 -1,036 Descending Los Angeles Center
Thu 12:27:17 PM 36.0178 -115.1981 95° East 271 312 9,000 -968 Descending Los Angeles Center
Thu 12:28:04 PM 36.0142 -115.1400 94° East 267 307 8,500 -550 Descending Los Angeles Center
Thu 12:29:06 PM 36.0119 -115.0700 92° East 222 255 8,000 -823 Descending Los Angeles Center
Thu 12:30:08 PM 36.0608 -115.0400 26° Northeast 209 241 6,800 -1,781 Descending Los Angeles Center
Thu 12:31:14 PM 36.1269 -115.0742 337° Northwest 222 255 4,200 -1,839 Descending Los Angeles Center
Thu 12:32:12 PM 36.1383 -115.1347 283° West 209 241 3,000 -1,041 Descending Los Angeles Center
Thu 12:33:15 PM 36.1108 -115.1283 169° South 250 288 2,100 -432 Descending Los Angeles Center
Thu 12:34:17 PM 36.1136 -115.0358 88° East 249 287 2,100  Level Los Angeles Center

Login

Don't have an account? Register now (free) for customized features, flight alerts, and more!